Time;durP1;ratioP1;P1;durP2;ratioP2;P2;SDS_P1;SDS_P2;PMS_P1;PMS_P2;Temp;Humidity;BMP_temperature;BMP_pressure;BME280_temperature;BME280_humidity;BME280_pressure;Samples;Min_cycle;Max_cycle;Signal;HPM_P1;HPM_P2
2022/02/14 00:01:17;;;;;;;26.00;12.68;;;;;;;0.77;61.93;94603.22;5062240;28;20059;-73
2022/02/14 00:03:43;;;;;;;40.13;12.85;;;;;;;0.69;62.20;94604.41;5062268;28;20025;-73
2022/02/14 00:06:08;;;;;;;28.83;12.18;;;;;;;0.58;62.82;94598.13;5062251;28;20314;-73
2022/02/14 00:08:34;;;;;;;26.33;12.38;;;;;;;0.45;63.13;94601.03;5062196;28;20151;-73
2022/02/14 00:10:59;;;;;;;28.05;12.82;;;;;;;0.43;63.41;94605.72;5062252;28;20096;-73
2022/02/14 00:13:24;;;;;;;22.98;11.98;;;;;;;0.37;63.75;94596.13;5062353;28;20029;-73
2022/02/14 00:15:52;;;;;;;28.65;12.20;;;;;;;0.42;64.09;94595.44;5062176;28;20021;-73
2022/02/14 00:18:18;;;;;;;20.45;11.75;;;;;;;0.49;63.79;94589.03;5061978;28;20029;-73
2022/02/14 00:20:44;;;;;;;31.25;11.82;;;;;;;0.59;63.32;94602.34;5062221;28;20091;-73
2022/02/14 00:23:09;;;;;;;27.65;11.35;;;;;;;0.61;63.17;94591.63;5062208;28;20047;-73
2022/02/14 00:25:35;;;;;;;28.60;12.25;;;;;;;0.67;62.95;94593.34;5062116;28;20091;-73
2022/02/14 00:28:00;;;;;;;26.75;12.05;;;;;;;0.74;62.87;94593.19;5062017;28;20040;-73
2022/02/14 00:30:26;;;;;;;25.20;11.35;;;;;;;0.86;62.88;94588.69;5062142;28;20316;-74
2022/02/14 00:32:51;;;;;;;25.90;10.68;;;;;;;0.83;62.32;94588.38;5061902;28;20021;-77
2022/02/14 00:35:17;;;;;;;29.23;11.55;;;;;;;0.87;62.71;94585.03;5062177;28;20139;-74
2022/02/14 00:37:42;;;;;;;28.35;11.23;;;;;;;0.87;62.60;94589.50;5062147;28;20029;-74
2022/02/14 00:40:09;;;;;;;27.15;11.70;;;;;;;0.90;62.66;94589.03;5065144;28;20070;-74
2022/02/14 00:42:35;;;;;;;25.92;11.50;;;;;;;0.90;62.82;94589.81;5065548;28;20088;-74
2022/02/14 00:45:00;;;;;;;26.90;11.35;;;;;;;0.89;63.23;94582.19;5065626;28;20346;-74
2022/02/14 00:47:26;;;;;;;21.38;11.15;;;;;;;0.95;63.06;94586.50;5065960;28;20278;-74
2022/02/14 00:49:52;;;;;;;26.98;12.27;;;;;;;1.04;63.31;94584.28;5065814;28;20374;-74
2022/02/14 00:52:17;;;;;;;21.13;10.60;;;;;;;1.14;63.15;94581.81;5065680;28;20083;-74
2022/02/14 00:54:43;;;;;;;28.73;10.35;;;;;;;1.23;63.04;94574.38;5065621;28;20024;-74
2022/02/14 00:57:10;;;;;;;20.42;11.32;;;;;;;1.32;62.95;94571.13;5065499;28;20096;-74
2022/02/14 00:59:35;;;;;;;23.50;10.93;;;;;;;1.42;62.80;94567.84;5064425;28;20327;-74
2022/02/14 01:02:01;;;;;;;21.75;10.80;;;;;;;1.47;62.83;94564.53;5065222;28;20084;-73
2022/02/14 01:04:26;;;;;;;23.15;10.05;;;;;;;1.54;62.57;94559.91;5065441;28;20037;-74
2022/02/14 01:06:52;;;;;;;22.85;10.77;;;;;;;1.62;62.25;94559.50;5065288;28;20074;-74
2022/02/14 01:09:17;;;;;;;27.33;13.13;;;;;;;1.70;62.21;94553.84;5065226;28;20396;-74
2022/02/14 01:11:43;;;;;;;25.15;11.40;;;;;;;1.79;61.38;94560.31;5065043;28;20047;-74
2022/02/14 01:14:09;;;;;;;26.42;11.85;;;;;;;1.78;61.17;94550.81;5065289;28;20035;-74
2022/02/14 01:16:34;;;;;;;28.45;12.27;;;;;;;1.83;61.14;94549.28;5065034;28;20045;-74
2022/02/14 01:19:00;;;;;;;32.40;12.50;;;;;;;1.90;61.67;94560.44;5065323;28;20047;-74
2022/02/14 01:21:26;;;;;;;23.20;11.70;;;;;;;1.92;60.99;94548.66;5065081;28;20220;-73
2022/02/14 01:23:51;;;;;;;24.65;11.15;;;;;;;1.88;61.05;94542.28;5065041;28;20031;-74
2022/02/14 01:26:16;;;;;;;26.98;12.07;;;;;;;1.90;61.00;94547.31;5065205;28;20270;-74
2022/02/14 01:28:42;;;;;;;24.70;11.88;;;;;;;1.94;60.99;94549.22;5065610;28;20314;-74
2022/02/14 01:31:08;;;;;;;30.98;12.55;;;;;;;1.99;61.13;94541.41;5064977;28;20021;-74
2022/02/14 01:33:33;;;;;;;22.83;11.18;;;;;;;1.95;60.92;94548.16;5064738;28;20025;-74
2022/02/14 01:35:59;;;;;;;24.13;10.70;;;;;;;1.98;60.60;94546.91;5065110;28;20101;-74
2022/02/14 01:38:24;;;;;;;21.58;9.48;;;;;;;2.00;60.77;94544.81;5064941;28;20048;-73
2022/02/14 01:40:50;;;;;;;26.83;10.88;;;;;;;1.97;60.15;94540.03;5064537;28;20024;-73
2022/02/14 01:43:15;;;;;;;19.95;11.02;;;;;;;1.91;60.25;94539.16;5064590;28;20028;-73
2022/02/14 01:45:42;;;;;;;26.20;11.85;;;;;;;1.94;60.55;94548.41;5064767;28;20021;-73
2022/02/14 01:48:08;;;;;;;24.75;11.90;;;;;;;1.94;60.42;94546.56;5064726;28;20323;-74
2022/02/14 01:50:34;;;;;;;26.17;10.93;;;;;;;1.89;60.30;94537.81;5063487;28;20025;-73
2022/02/14 01:53:12;;;;;;;22.90;10.68;;;;;;;1.81;60.88;94536.38;5065036;28;20079;-77
2022/02/14 01:55:37;;;;;;;20.77;10.43;;;;;;;1.79;60.95;94536.66;5064433;28;20028;-75
2022/02/14 01:58:04;;;;;;;20.70;10.55;;;;;;;1.84;60.92;94524.63;5064328;28;20107;-73
2022/02/14 02:00:30;;;;;;;23.65;11.45;;;;;;;1.84;61.01;94519.34;5064414;28;20021;-75
2022/02/14 02:02:56;;;;;;;23.65;11.40;;;;;;;1.91;61.20;94519.97;5064301;28;20341;-73
2022/02/14 02:05:23;;;;;;;22.20;11.02;;;;;;;1.94;61.46;94514.25;5064417;28;20116;-73
2022/02/14 02:07:51;;;;;;;21.77;10.75;;;;;;;1.96;60.96;94517.41;5064023;28;20067;-73
2022/02/14 02:10:16;;;;;;;18.85;9.98;;;;;;;1.94;61.29;94520.28;5064112;28;20111;-73
2022/02/14 02:12:53;;;;;;;20.27;10.40;;;;;;;1.95;61.54;94508.72;5064044;28;20053;-73
2022/02/14 02:15:19;;;;;;;24.40;10.57;;;;;;;1.97;61.28;94511.09;5064109;28;20029;-74
2022/02/14 02:17:45;;;;;;;23.25;10.77;;;;;;;1.98;60.96;94516.13;5063874;28;20025;-74
2022/02/14 02:20:13;;;;;;;23.25;10.98;;;;;;;1.96;60.89;94507.69;5063964;28;20041;-74
2022/02/14 02:22:40;;;;;;;20.33;11.68;;;;;;;1.98;61.38;94504.81;5063985;28;20037;-73
2022/02/14 02:25:06;;;;;;;22.60;10.60;;;;;;;2.02;61.61;94510.41;5062809;28;20036;-73
2022/02/14 02:27:32;;;;;;;24.38;10.00;;;;;;;1.96;61.57;94499.81;5063784;28;20069;-73
2022/02/14 02:30:05;;;;;;;25.27;10.80;;;;;;;1.95;62.14;94503.47;5063845;28;20037;-73
2022/02/14 02:32:32;;;;;;;24.45;10.90;;;;;;;1.96;61.92;94497.19;5063774;28;20054;-73
2022/02/14 02:34:58;;;;;;;23.63;10.82;;;;;;;1.99;61.80;94495.88;5063752;28;20024;-74
2022/02/14 02:37:24;;;;;;;25.02;10.40;;;;;;;2.02;61.85;94492.78;5063735;28;20029;-73
2022/02/14 02:39:52;;;;;;;24.95;9.82;;;;;;;2.03;62.26;94488.31;5063438;28;20040;-74
2022/02/14 02:42:22;;;;;;;23.70;10.65;;;;;;;2.05;62.11;94494.91;5063720;28;20029;-74
2022/02/14 02:44:49;;;;;;;25.05;11.57;;;;;;;2.08;62.02;94499.69;5063484;28;20036;-73
2022/02/14 02:47:17;;;;;;;26.95;12.35;;;;;;;2.16;61.60;94503.75;5063441;28;20024;-73
2022/02/14 02:49:44;;;;;;;21.65;10.32;;;;;;;2.21;61.49;94498.53;5063189;28;20053;-73
2022/02/14 02:52:10;;;;;;;25.88;12.07;;;;;;;2.18;61.38;94499.81;5063410;28;20045;-73
2022/02/14 02:54:36;;;;;;;24.13;12.27;;;;;;;2.15;61.54;94497.66;5063284;28;20025;-73
2022/02/14 02:57:03;;;;;;;27.58;12.38;;;;;;;2.13;61.78;94501.59;5063136;28;20048;-74
2022/02/14 02:59:30;;;;;;;22.98;11.65;;;;;;;2.09;61.85;94493.38;5063352;28;20043;-73
2022/02/14 03:01:55;;;;;;;28.70;12.13;;;;;;;2.04;61.80;94503.06;5062557;28;20025;-73
2022/02/14 03:04:21;;;;;;;31.95;11.55;;;;;;;2.04;61.40;94503.06;5063081;28;20299;-73
2022/02/14 03:06:47;;;;;;;26.30;12.77;;;;;;;2.00;61.25;94506.16;5063049;28;20052;-73
2022/02/14 03:09:14;;;;;;;20.80;10.77;;;;;;;1.94;61.33;94498.47;5062873;28;20021;-74
2022/02/14 03:11:41;;;;;;;22.05;11.93;;;;;;;1.94;61.39;94501.88;5062971;28;20048;-73
2022/02/14 03:14:07;;;;;;;21.10;11.07;;;;;;;1.80;61.40;94492.75;5062593;28;20020;-73
2022/02/14 03:16:33;;;;;;;22.55;11.07;;;;;;;1.69;61.60;94488.38;5062884;28;20052;-73
2022/02/14 03:18:58;;;;;;;31.08;12.30;;;;;;;1.66;61.62;94499.38;5063056;28;20025;-74
2022/02/14 03:21:24;;;;;;;26.27;13.00;;;;;;;1.55;62.14;94501.88;5063031;28;20092;-74
2022/02/14 03:23:53;;;;;;;34.08;13.75;;;;;;;1.55;62.32;94495.81;5062626;28;20249;-74
2022/02/14 03:26:21;;;;;;;27.13;12.80;;;;;;;1.56;62.42;94494.78;5062641;28;20106;-73
2022/02/14 03:28:49;;;;;;;31.70;14.88;;;;;;;1.58;62.45;94496.13;5062832;28;20071;-73
2022/02/14 03:31:14;;;;;;;28.30;13.65;;;;;;;1.55;62.45;94498.47;5062463;28;20067;-73
2022/02/14 03:33:41;;;;;;;30.52;14.23;;;;;;;1.55;62.77;94501.09;5062654;28;20033;-73
2022/02/14 03:36:07;;;;;;;25.83;13.15;;;;;;;1.55;62.82;94487.94;5062653;28;20028;-73
2022/02/14 03:38:32;;;;;;;27.90;14.07;;;;;;;1.52;62.58;94488.41;5062386;28;20311;-74
2022/02/14 03:40:58;;;;;;;30.45;14.38;;;;;;;1.51;62.75;94489.47;5062749;28;20017;-75
2022/02/14 03:43:23;;;;;;;32.03;13.95;;;;;;;1.52;62.68;94491.84;5062397;28;20327;-75
2022/02/14 03:45:49;;;;;;;25.88;14.20;;;;;;;1.58;62.67;94482.19;5062443;28;20160;-74
2022/02/14 03:48:15;;;;;;;27.88;13.15;;;;;;;1.63;62.97;94482.28;5062634;28;20157;-74
2022/02/14 03:50:40;;;;;;;28.83;12.93;;;;;;;1.66;62.88;94484.41;5062353;28;20116;-74
2022/02/14 03:53:06;;;;;;;24.50;12.70;;;;;;;1.72;63.15;94485.28;5062545;28;20319;-74
2022/02/14 03:55:32;;;;;;;30.38;13.77;;;;;;;1.71;63.09;94476.59;5062680;28;20028;-74
2022/02/14 03:57:58;;;;;;;23.63;13.82;;;;;;;1.73;63.03;94477.16;5062538;28;20029;-74
2022/02/14 04:00:24;;;;;;;33.85;14.38;;;;;;;1.76;62.87;94479.28;5062324;28;20196;-75
2022/02/14 04:02:50;;;;;;;31.30;15.35;;;;;;;1.76;62.72;94476.66;5062228;28;20052;-73
2022/02/14 04:05:17;;;;;;;31.48;15.07;;;;;;;1.84;62.72;94482.56;5062397;28;20035;-73
2022/02/14 04:07:44;;;;;;;28.52;12.68;;;;;;;1.85;62.73;94484.13;5062338;28;20286;-74
2022/02/14 04:10:12;;;;;;;29.58;14.43;;;;;;;1.84;62.21;94483.34;5061288;28;20037;-74
2022/02/14 04:12:37;;;;;;;30.83;14.05;;;;;;;1.79;62.47;94485.88;5062110;28;20335;-74
2022/02/14 04:15:05;;;;;;;36.03;14.40;;;;;;;1.76;62.69;94479.28;5065314;28;20066;-73
2022/02/14 04:17:31;;;;;;;28.83;14.23;;;;;;;1.72;62.86;94472.94;5066371;28;20021;-73
2022/02/14 04:19:56;;;;;;;37.80;14.45;;;;;;;1.74;62.86;94465.59;5066164;28;20028;-74
2022/02/14 04:22:22;;;;;;;28.88;14.70;;;;;;;1.72;63.14;94459.78;5066165;28;20029;-74
2022/02/14 04:24:47;;;;;;;27.00;14.23;;;;;;;1.73;62.95;94471.91;5066044;28;20060;-74
2022/02/14 04:27:13;;;;;;;30.08;15.18;;;;;;;1.71;62.62;94466.09;5065957;28;20052;-74
2022/02/14 04:29:39;;;;;;;33.38;14.38;;;;;;;1.67;62.90;94464.19;5065794;28;20111;-73
2022/02/14 04:32:05;;;;;;;35.65;15.85;;;;;;;1.70;62.98;94461.88;5066017;28;20122;-74
2022/02/14 04:34:30;;;;;;;36.05;15.93;;;;;;;1.70;62.88;94467.13;5066183;28;20024;-73
2022/02/14 04:36:57;;;;;;;30.83;15.98;;;;;;;1.71;62.77;94470.53;5066459;28;20338;-76
2022/02/14 04:39:23;;;;;;;35.78;14.07;;;;;;;1.66;62.80;94481.78;5067843;28;20035;-75
2022/02/14 04:41:49;;;;;;;27.25;14.88;;;;;;;1.60;62.70;94478.28;5068182;28;20092;-75
2022/02/14 04:44:15;;;;;;;27.63;13.27;;;;;;;1.52;62.96;94478.69;5068352;28;20029;-75
2022/02/14 04:46:41;;;;;;;31.25;15.60;;;;;;;1.53;63.02;94485.56;5066765;28;20052;-75
2022/02/14 04:49:07;;;;;;;33.47;15.25;;;;;;;1.53;63.14;94480.31;5065484;28;20323;-75
2022/02/14 04:51:34;;;;;;;30.77;15.32;;;;;;;1.58;63.33;94490.88;5065741;28;20021;-75
2022/02/14 04:54:02;;;;;;;30.60;14.57;;;;;;;1.60;63.23;94488.00;5065634;28;20087;-74
2022/02/14 04:56:28;;;;;;;30.65;14.63;;;;;;;1.56;63.06;94482.44;5065543;28;20100;-74
2022/02/14 04:58:54;;;;;;;27.52;14.70;;;;;;;1.57;62.98;94473.53;5065362;28;20021;-74
2022/02/14 05:01:20;;;;;;;40.90;16.30;;;;;;;1.58;63.28;94482.97;5065296;28;20181;-74
2022/02/14 05:03:45;;;;;;;29.73;14.35;;;;;;;1.58;62.92;94477.72;5065412;28;20025;-75
2022/02/14 05:06:10;;;;;;;34.60;15.95;;;;;;;1.60;63.03;94478.28;5065480;28;20012;-73
2022/02/14 05:08:36;;;;;;;35.05;15.95;;;;;;;1.61;63.17;94473.84;5065383;28;20013;-74
2022/02/14 05:11:02;;;;;;;38.03;16.40;;;;;;;1.61;62.75;94481.72;5065278;28;20310;-74
2022/02/14 05:13:28;;;;;;;28.98;15.82;;;;;;;1.60;62.99;94488.78;5065117;28;20036;-74
2022/02/14 05:15:53;;;;;;;38.83;17.92;;;;;;;1.60;63.21;94491.41;5065262;28;20349;-74
2022/02/14 05:18:18;;;;;;;40.35;17.25;;;;;;;1.56;62.88;94492.16;5065142;28;20329;-74
2022/02/14 05:20:44;;;;;;;30.70;15.30;;;;;;;1.55;62.70;94485.31;5065119;28;20017;-74
2022/02/14 05:23:10;;;;;;;27.38;14.48;;;;;;;1.52;62.77;94488.41;5065037;28;20017;-74
2022/02/14 05:25:35;;;;;;;29.45;15.48;;;;;;;1.53;62.88;94492.66;5064697;28;20020;-73
2022/02/14 05:28:09;;;;;;;36.25;15.98;;;;;;;1.55;63.16;94495.81;5065103;28;20040;-74
2022/02/14 05:30:34;;;;;;;27.95;13.98;;;;;;;1.52;63.03;94493.66;5065118;28;20028;-74
2022/02/14 05:33:00;;;;;;;36.65;16.52;;;;;;;1.51;63.04;94494.72;5065055;28;20021;-74
2022/02/14 05:35:26;;;;;;;38.55;15.52;;;;;;;1.50;63.15;94496.53;5064979;28;20028;-74
2022/02/14 05:37:52;;;;;;;31.10;15.48;;;;;;;1.49;63.27;94502.84;5064674;28;20021;-74
2022/02/14 05:40:18;;;;;;;27.30;13.35;;;;;;;1.48;62.97;94500.44;5064941;28;20025;-74
2022/02/14 05:42:44;;;;;;;28.77;13.98;;;;;;;1.51;63.15;94502.59;5064564;28;20219;-75
2022/02/14 05:45:10;;;;;;;32.17;15.88;;;;;;;1.54;63.12;94500.25;5064852;28;20025;-74
2022/02/14 05:47:35;;;;;;;30.58;13.65;;;;;;;1.56;63.29;94502.66;5064748;28;20196;-75
2022/02/14 05:50:01;;;;;;;28.48;14.00;;;;;;;1.59;63.08;94504.81;5064816;28;20028;-75
2022/02/14 05:52:26;;;;;;;29.27;13.77;;;;;;;1.60;62.76;94498.50;5064660;28;20044;-75
2022/02/14 05:54:51;;;;;;;32.25;16.13;;;;;;;1.55;63.22;94493.19;5064338;28;20025;-74
2022/02/14 05:57:18;;;;;;;34.97;14.52;;;;;;;1.56;63.61;94500.81;5064335;28;20036;-75
2022/02/14 05:59:43;;;;;;;28.95;14.63;;;;;;;1.57;63.90;94496.38;5064598;28;20200;-75
2022/02/14 06:02:09;;;;;;;36.40;14.45;;;;;;;1.60;63.38;94499.31;5064264;28;20075;-75
2022/02/14 06:04:34;;;;;;;26.45;14.27;;;;;;;1.63;63.26;94495.41;5064213;28;20092;-75
2022/02/14 06:07:00;;;;;;;33.53;15.00;;;;;;;1.69;63.33;94504.97;5064375;28;20028;-75
2022/02/14 06:09:26;;;;;;;29.38;13.88;;;;;;;1.69;63.19;94507.59;5064061;28;20235;-75
2022/02/14 06:11:53;;;;;;;26.83;13.93;;;;;;;1.65;62.93;94509.13;5063863;28;20053;-74
2022/02/14 06:14:19;;;;;;;30.00;14.18;;;;;;;1.54;63.89;94504.72;5064176;28;20094;-75
2022/02/14 06:16:44;;;;;;;28.85;14.70;;;;;;;1.49;64.01;94508.09;5063904;28;20020;-75
2022/02/14 06:19:09;;;;;;;39.72;17.88;;;;;;;1.39;64.63;94516.59;5063914;28;20023;-74
2022/02/14 06:21:35;;;;;;;33.53;17.80;;;;;;;1.36;65.92;94517.09;5064124;28;20280;-74
2022/02/14 06:24:00;;;;;;;44.60;19.58;;;;;;;1.35;66.52;94510.22;5063724;28;20224;-74
2022/02/14 06:26:26;;;;;;;44.13;21.77;;;;;;;1.18;67.48;94512.88;5063812;28;20293;-74
2022/02/14 06:28:51;;;;;;;45.47;21.73;;;;;;;1.05;68.53;94522.88;5063687;28;20200;-74
2022/02/14 06:31:16;;;;;;;48.47;21.42;;;;;;;0.99;69.13;94517.53;5063925;28;20052;-74
2022/02/14 06:33:42;;;;;;;43.45;21.25;;;;;;;0.97;69.13;94514.34;5063872;28;20163;-74
2022/02/14 06:36:08;;;;;;;40.25;19.02;;;;;;;0.93;69.14;94526.34;5063263;28;20120;-74
2022/02/14 06:38:34;;;;;;;47.40;21.45;;;;;;;0.97;69.60;94531.94;5063378;28;20020;-73
2022/02/14 06:41:00;;;;;;;36.78;18.08;;;;;;;1.07;69.97;94533.94;5063625;28;20020;-75
2022/02/14 06:43:26;;;;;;;32.42;18.55;;;;;;;1.05;70.12;94521.03;5063492;28;20088;-74
2022/02/14 06:45:51;;;;;;;37.88;19.20;;;;;;;1.05;69.77;94534.16;5063571;28;20048;-75
2022/02/14 06:48:17;;;;;;;43.53;20.55;;;;;;;1.00;70.52;94537.50;5063399;28;20307;-75
2022/02/14 06:50:42;;;;;;;42.03;20.40;;;;;;;0.94;70.67;94527.16;5062953;28;20021;-74
2022/02/14 06:53:08;;;;;;;44.00;20.35;;;;;;;0.94;70.84;94535.81;5063513;28;20319;-75
2022/02/14 06:55:33;;;;;;;43.33;20.80;;;;;;;1.00;71.58;94534.88;5063294;28;20349;-74
2022/02/14 06:57:59;;;;;;;36.53;19.85;;;;;;;1.05;71.53;94528.13;5063142;28;20028;-73
2022/02/14 07:00:24;;;;;;;38.53;21.30;;;;;;;1.13;71.27;94525.09;5063148;28;20025;-78
2022/02/14 07:02:50;;;;;;;49.50;22.17;;;;;;;1.24;70.47;94521.59;5063220;28;20024;-85
2022/02/14 07:05:17;;;;;;;43.50;19.80;;;;;;;1.31;70.47;94521.47;5062331;28;20024;-79
2022/02/14 07:07:43;;;;;;;42.03;19.98;;;;;;;1.34;70.37;94536.72;5063441;28;20043;-80
2022/02/14 07:10:10;;;;;;;48.95;21.42;;;;;;;1.39;70.87;94529.75;5063575;28;20021;-73
2022/02/14 07:12:36;;;;;;;44.70;20.63;;;;;;;1.40;70.38;94528.72;5062843;28;20127;-72
2022/02/14 07:15:01;;;;;;;45.03;20.80;;;;;;;1.42;70.19;94525.03;5062481;28;20024;-72
2022/02/14 07:17:27;;;;;;;36.25;19.38;;;;;;;1.47;69.70;94530.38;5062599;28;20032;-72
2022/02/14 07:19:52;;;;;;;45.20;21.23;;;;;;;1.51;69.98;94527.03;5062603;28;20051;-74
2022/02/14 07:22:18;;;;;;;42.97;20.77;;;;;;;1.56;69.95;94523.69;5062406;28;20116;-73
2022/02/14 07:24:43;;;;;;;46.15;20.55;;;;;;;1.57;69.65;94523.44;5064080;28;20066;-78
2022/02/14 07:27:09;;;;;;;38.63;21.15;;;;;;;1.71;69.42;94523.09;5062666;28;20100;-78
2022/02/14 07:29:34;;;;;;;47.47;20.05;;;;;;;1.80;69.38;94532.97;5062777;28;20222;-78
2022/02/14 07:32:00;;;;;;;43.45;20.17;;;;;;;1.88;69.17;94531.78;5062714;28;20059;-79
2022/02/14 07:34:25;;;;;;;37.28;20.17;;;;;;;1.92;68.74;94518.94;5062823;28;20092;-80
2022/02/14 07:36:51;;;;;;;44.88;21.15;;;;;;;1.98;68.15;94534.53;5062644;28;20327;-73
2022/02/14 07:39:17;;;;;;;40.55;19.65;;;;;;;1.95;68.08;94523.69;5062531;28;20327;-75
2022/02/14 07:41:43;;;;;;;42.97;20.42;;;;;;;1.97;68.63;94534.78;5062389;28;20059;-74
2022/02/14 07:44:08;;;;;;;35.45;19.30;;;;;;;1.96;68.28;94538.44;5061141;28;20054;-74
2022/02/14 07:46:34;;;;;;;35.13;18.42;;;;;;;1.90;68.54;94539.41;5062309;28;20028;-74
2022/02/14 07:48:59;;;;;;;40.80;20.55;;;;;;;1.93;69.50;94539.72;5062198;28;20084;-74
2022/02/14 07:51:25;;;;;;;37.50;21.25;;;;;;;1.95;68.84;94536.84;5062046;28;20309;-74
2022/02/14 07:53:51;;;;;;;40.97;19.00;;;;;;;1.95;69.21;94542.09;5062187;28;20188;-73
2022/02/14 07:56:16;;;;;;;36.67;20.42;;;;;;;1.91;68.93;94536.53;5062328;28;20067;-71
2022/02/14 07:58:43;;;;;;;44.25;19.85;;;;;;;1.93;68.99;94528.41;5062035;28;20044;-72
2022/02/14 08:01:09;;;;;;;39.35;20.48;;;;;;;2.03;69.16;94527.75;5062187;28;20017;-70
2022/02/14 08:03:35;;;;;;;43.55;19.55;;;;;;;2.15;69.16;94531.84;5061972;28;20043;-72
2022/02/14 08:06:01;;;;;;;33.92;19.95;;;;;;;2.26;69.16;94524.91;5062095;28;20025;-72
2022/02/14 08:08:26;;;;;;;38.85;20.17;;;;;;;2.45;68.55;94529.88;5062176;28;20023;-69
2022/02/14 08:10:53;;;;;;;38.70;21.23;;;;;;;2.58;68.20;94518.94;5062074;28;20327;-69
2022/02/14 08:13:19;;;;;;;40.75;20.92;;;;;;;2.75;67.77;94524.16;5062027;28;20303;-69
2022/02/14 08:15:45;;;;;;;43.90;21.45;;;;;;;2.81;66.64;94512.63;5062002;28;20088;-69
2022/02/14 08:18:10;;;;;;;40.35;21.98;;;;;;;2.83;65.90;94522.88;5062196;28;20056;-69
2022/02/14 08:20:37;;;;;;;42.17;21.55;;;;;;;2.80;65.69;94524.97;5062283;28;20219;-69
2022/02/14 08:23:04;;;;;;;42.60;22.55;;;;;;;2.82;65.21;94519.47;5061985;28;20020;-69
2022/02/14 08:25:31;;;;;;;43.85;23.00;;;;;;;2.79;65.79;94515.50;5061852;28;20350;-70
2022/02/14 08:28:01;;;;;;;49.58;23.75;;;;;;;2.79;66.11;94522.63;5061047;28;20031;-70
2022/02/14 08:30:26;;;;;;;52.85;25.77;;;;;;;2.74;66.52;94528.59;5061050;28;20062;-70
2022/02/14 08:32:52;;;;;;;68.75;26.30;;;;;;;2.71;66.78;94523.06;5061289;28;20017;-71
2022/02/14 08:35:17;;;;;;;55.63;25.20;;;;;;;2.69;66.70;94525.13;5061980;28;20040;-72
2022/02/14 08:37:44;;;;;;;50.55;26.63;;;;;;;2.64;67.42;94517.19;5061857;28;20024;-71
2022/02/14 08:40:10;;;;;;;52.60;25.73;;;;;;;2.53;68.00;94516.28;5061808;28;20020;-71
2022/02/14 08:42:36;;;;;;;46.45;24.67;;;;;;;2.61;67.76;94521.09;5062017;28;20184;-72
2022/02/14 08:45:03;;;;;;;44.25;24.73;;;;;;;2.73;67.42;94518.34;5062012;28;20028;-70
2022/02/14 08:47:28;;;;;;;61.55;24.30;;;;;;;2.82;66.90;94511.56;5061593;28;20068;-70
2022/02/14 08:49:54;;;;;;;47.13;25.75;;;;;;;2.80;67.24;94511.81;5061886;28;20326;-70
2022/02/14 08:52:20;;;;;;;56.78;25.85;;;;;;;2.97;68.15;94513.56;5061682;28;20017;-70
2022/02/14 08:54:45;;;;;;;49.88;25.83;;;;;;;3.07;67.67;94511.00;5061512;28;20330;-71
2022/02/14 08:57:11;;;;;;;46.47;25.65;;;;;;;3.14;66.63;94514.25;5061692;28;20048;-71
2022/02/14 08:59:36;;;;;;;52.38;24.70;;;;;;;3.19;65.59;94508.22;5061203;28;20048;-71
2022/02/14 09:02:02;;;;;;;57.85;26.38;;;;;;;3.20;65.83;94509.81;5064199;28;20046;-71
2022/02/14 09:04:27;;;;;;;50.35;26.48;;;;;;;3.22;66.18;94513.78;5065277;28;20249;-71
2022/02/14 09:06:53;;;;;;;55.78;27.45;;;;;;;3.29;65.98;94516.22;5065407;28;20029;-72
2022/02/14 09:09:20;;;;;;;51.80;28.10;;;;;;;3.38;66.11;94522.63;5065229;28;20086;-72
2022/02/14 09:11:46;;;;;;;52.38;27.27;;;;;;;3.38;65.66;94517.34;5065290;28;20056;-71
2022/02/14 09:14:12;;;;;;;53.78;28.88;;;;;;;3.42;65.57;94518.44;5065368;28;20080;-71
2022/02/14 09:16:37;;;;;;;55.63;28.80;;;;;;;3.46;65.48;94512.66;5065302;28;20377;-71
2022/02/14 09:19:04;;;;;;;56.22;28.60;;;;;;;3.59;65.48;94517.50;5065062;28;20274;-70
2022/02/14 09:21:30;;;;;;;61.20;31.02;;;;;;;3.65;65.88;94516.50;5064907;28;20096;-72
2022/02/14 09:23:55;;;;;;;55.95;30.98;;;;;;;3.66;66.39;94518.06;5065222;28;20092;-70
2022/02/14 09:26:21;;;;;;;56.70;30.10;;;;;;;3.78;65.46;94516.03;5065089;28;20033;-72
2022/02/14 09:28:46;;;;;;;60.00;30.45;;;;;;;3.84;65.75;94516.88;5064981;28;20032;-71
2022/02/14 09:31:12;;;;;;;58.60;27.17;;;;;;;3.97;65.47;94518.28;5064931;28;20025;-72
2022/02/14 09:33:37;;;;;;;51.38;24.02;;;;;;;4.15;64.65;94514.41;5065035;28;20084;-71
2022/02/14 09:36:03;;;;;;;41.17;21.95;;;;;;;4.36;63.31;94517.97;5065004;28;20079;-71
2022/02/14 09:38:29;;;;;;;47.92;22.77;;;;;;;4.46;62.66;94514.53;5065064;28;20307;-71
2022/02/14 09:40:54;;;;;;;44.70;25.05;;;;;;;4.49;61.99;94522.75;5064762;28;20130;-71
2022/02/14 09:43:20;;;;;;;52.03;23.60;;;;;;;4.58;62.01;94513.28;5064594;28;20311;-72
2022/02/14 09:45:46;;;;;;;42.88;23.30;;;;;;;4.70;62.03;94520.19;5064814;28;20037;-72
2022/02/14 09:48:13;;;;;;;45.03;24.13;;;;;;;4.80;60.88;94514.94;5064729;28;20024;-72
2022/02/14 09:50:40;;;;;;;52.42;27.13;;;;;;;4.83;61.20;94515.22;5064608;28;20029;-70
2022/02/14 09:53:10;;;;;;;46.85;23.42;;;;;;;4.88;60.63;94511.78;5064573;28;20048;-72
2022/02/14 09:55:37;;;;;;;43.15;22.95;;;;;;;4.84;60.00;94516.00;5064695;28;20037;-72
2022/02/14 09:58:03;;;;;;;46.63;24.42;;;;;;;4.83;60.43;94506.50;5064330;28;20021;-72
2022/02/14 10:00:29;;;;;;;47.63;27.23;;;;;;;4.78;60.91;94506.47;5064332;28;20092;-72
2022/02/14 10:03:15;;;;;;;52.92;26.50;;;;;;;4.79;60.73;94505.44;5064056;28;20037;-71
2022/02/14 10:05:43;;;;;;;56.65;27.95;;;;;;;4.75;60.62;94502.50;5064142;28;20067;-72
2022/02/14 10:08:09;;;;;;;45.72;24.85;;;;;;;4.65;61.29;94501.69;5064384;28;20017;-72
2022/02/14 10:10:36;;;;;;;49.85;27.05;;;;;;;4.74;61.60;94500.13;5064111;28;20035;-71
2022/02/14 10:13:02;;;;;;;68.70;30.17;;;;;;;4.78;61.53;94495.91;5063299;28;20041;-71
2022/02/14 10:15:27;;;;;;;51.88;28.67;;;;;;;4.87;61.22;94488.28;5064107;28;20381;-72
2022/02/14 10:17:59;;;;;;;55.03;29.00;;;;;;;4.90;61.29;94490.38;5064121;28;20203;-71
2022/02/14 10:20:26;;;;;;;58.15;29.58;;;;;;;4.83;61.37;94485.38;5064063;28;20021;-72
2022/02/14 10:22:54;;;;;;;49.42;28.17;;;;;;;4.87;61.23;94489.06;5063655;28;20028;-72
2022/02/14 10:25:37;;;;;;;51.60;29.15;;;;;;;4.82;60.77;94481.13;5063984;28;20021;-72
2022/02/14 10:28:25;;;;;;;49.83;27.92;;;;;;;4.77;61.90;94474.00;5063908;28;20029;-71
2022/02/14 10:31:00;;;;;;;54.53;28.38;;;;;;;4.77;61.80;94468.72;5063782;28;20339;-71
2022/02/14 10:33:52;;;;;;;48.15;26.02;;;;;;;4.99;61.79;94463.19;5063864;28;20031;-72
2022/02/14 10:36:26;;;;;;;57.85;27.08;;;;;;;5.26;61.63;94459.50;5060600;28;20049;-70
2022/02/14 10:38:52;;;;;;;49.05;25.70;;;;;;;5.52;60.02;94459.50;5063515;28;20028;-71
2022/02/14 10:41:17;;;;;;;50.00;26.95;;;;;;;5.74;59.27;94454.72;5063656;28;20070;-71
2022/02/14 10:43:43;;;;;;;51.97;28.08;;;;;;;5.94;59.36;94443.28;5063557;28;20029;-71
2022/02/14 10:46:18;;;;;;;46.60;27.23;;;;;;;6.13;58.28;94440.88;5063594;28;20032;-71
2022/02/14 10:48:44;;;;;;;48.90;27.05;;;;;;;6.29;57.22;94444.25;5063427;28;20020;-71
2022/02/14 10:51:16;;;;;;;46.80;26.88;;;;;;;6.38;58.29;94421.44;5063157;28;20218;-71
2022/02/14 10:53:46;;;;;;;48.65;26.45;;;;;;;6.57;57.92;94424.28;5063204;28;20020;-71
2022/02/14 10:56:18;;;;;;;54.55;26.33;;;;;;;6.74;56.17;94421.25;5063298;28;20070;-71
2022/02/14 10:58:43;;;;;;;52.33;27.88;;;;;;;6.79;56.26;94423.06;5063161;28;20040;-71
2022/02/14 11:01:10;;;;;;;48.33;26.73;;;;;;;6.81;56.19;94413.75;5063217;28;20037;-71
2022/02/14 11:03:39;;;;;;;44.22;25.83;;;;;;;6.80;56.21;94412.19;5063247;28;20096;-71
2022/02/14 11:06:05;;;;;;;50.72;26.88;;;;;;;6.82;56.01;94414.56;5061948;28;20055;-71
2022/02/14 11:08:34;;;;;;;49.70;28.17;;;;;;;6.87;55.79;94411.09;5062931;28;20032;-73
2022/02/14 11:11:02;;;;;;;53.63;28.30;;;;;;;6.76;56.45;94415.69;5062389;28;20031;-73
2022/02/14 11:13:30;;;;;;;50.30;27.70;;;;;;;6.55;56.95;94410.47;5062885;28;20017;-72
2022/02/14 11:15:55;;;;;;;53.90;27.20;;;;;;;6.73;56.05;94410.91;5062843;28;20021;-73
2022/02/14 11:18:25;;;;;;;50.72;28.60;;;;;;;6.76;56.08;94403.22;5062758;28;20164;-72
2022/02/14 11:20:51;;;;;;;49.33;27.90;;;;;;;6.67;56.04;94409.38;5062728;28;20029;-73